Publicité

Trail des Cagous: classement SFAC - 50 Km

Trail / Raid

22-08-2021

Organisateur: Nouvelle-Calédonie Aventure

Événement chronométré par inlive

Tout     M     F    
Tout     Senior     Master 1     Master 2     Master 3     Master 4    

Astuce: cliquez sur deux concurrents pour comparer leur temps

Position Dossard Nom Prénom Sexe Catégorie Classement Catégorie Temps
1 5069 LANCELEUR Ludovic M Master 1 1 05:21:48
2 5065 DEHEE Victor M Senior 1 05:41:42
3 5060 BRACKENIER Maxime M Senior 2 05:55:16
4 5004 THIOUNN Dimitri M Senior 3 05:58:27
5 5073 PRADO Natalia F Senior 1 06:03:06
6 5066 MARCHIVE Mickael M Senior 4 06:25:30
7 5038 MULLER Clement M Senior 5 06:26:46
8 5087 PLAIRE Angelique rosy liliane F Senior 2 06:28:28
9 5103 KABOER Deborah F Senior 3 06:33:33
10 5008 FERNANDES Sebastien M Master 1 2 06:33:35
11 5013 CHABLE Julien M Master 1 3 06:33:38
12 5072 RENAUX Laetitia F Senior 4 06:35:03
13 5043 SONTAG Ivo M Master 2 1 06:36:56
14 5025 GUILLAUME Pascal jean M Master 1 4 06:39:50
15 5051 GOSSE Gael M Senior 6 06:46:03
16 5054 MACEDO Aurelie F Senior 5 06:50:51
17 5039 PAWLICKI Nathan M Senior 7 06:50:52
18 5092 CIESIELSKI Nicolas M Master 1 5 06:53:54
19 5040 ROY Vincent M Senior 8 06:55:51
20 5096 BOUSSAROQUE Olivier M Master 1 6 06:57:05
21 5056 CHEVAL Nicolas M Senior 9 06:58:03
22 5088 DUQUESNOY Gerard M Master 2 2 07:01:05
23 5061 CARRE Mickael M Senior 10 07:10:23
24 5018 CLAUWAERT Jonathan M Senior 11 07:11:46
25 5045 PAINSONNEAU Simon M Master 1 7 07:13:28
26 5071 HERVOUET Patrice M Master 1 8 07:15:04
27 5063 GOURINAT Ann-claire F Master 1 1 07:15:20
28 5028 CLOAREC Simon M Senior 12 07:18:03
29 5044 HIRTZ Franck M Master 2 3 07:21:45
30 5057 JOUIN Adeline F Master 1 2 07:22:30
31 5102 STILMANT Emilie F Senior 6 07:24:49
32 5031 LEHEUTRE Xavier M Master 2 4 07:29:16
33 5062 NATIVEL Patrick M Master 2 5 07:35:52
34 5074 DEWYNTER Amaury M Senior 13 07:36:23
35 5030 VARLET Romain M Senior 14 07:41:14
36 5032 DI PAOLO Rossano M Master 3 1 07:42:22
37 5064 RAIMOND Fanny F Senior 7 07:42:39
38 5070 CHAILLEUX Laurent M Master 2 6 07:48:10
39 5046 LEDUC Tabatha F Senior 8 07:48:28
40 5017 LOUDES Jean-stephane M Senior 15 07:49:05
41 5059 GILQUIN Liam M Senior 16 07:49:54
42 5058 GILQUIN Eric M Master 2 7 07:49:54
43 5048 AUPY Vivien M Senior 17 07:51:10
44 5020 CARNICELLI Sebastien M Master 1 9 07:53:36
45 5034 RACLE Florent M Master 2 8 07:54:51
46 5042 CAILLEAU Marie-aline F Master 2 1 07:58:14
47 5002 COLLENOT Isabelle F Senior 9 08:05:27
48 5068 POPOVIC Predrag M Master 1 10 08:07:25
49 5093 LASSERRE Barbara F Senior 10 08:15:10
50 5052 LASSERRE Georges M Master 3 2 08:15:11
51 5085 BONATON Charlotte F Master 1 3 08:16:28
52 5023 AUBRY Guillaume M Master 1 11 08:18:00
53 5026 BOURLART Sebastien M Master 1 12 08:18:49
54 5101 GALLI Stephane M Master 2 9 08:22:16
55 5041 PENIN Glenn M Senior 18 08:23:17
56 5078 MONIER Sandrine F Master 1 4 08:24:12
57 5055 CHEVAL Christian M Master 3 3 08:27:45
58 5012 LE GOANVIC Pierre M Senior 19 08:31:01
59 5108 GRENIER Lionel M Master 1 13 08:31:01
60 5075 GEORGES Charlene F Senior 11 08:32:58
61 5015 MADEC Gregory M Master 1 14 08:34:02
62 5077 ROBERT-TRAEGER Jean-loup M Master 1 15 08:37:27
63 5079 BRESIL Nadia F Master 1 5 08:37:31
64 5089 ONDET Christian M Master 2 10 08:42:44
65 5027 SALVAN Guilhem M Master 1 16 08:43:38
66 5084 VILAS Alain M Master 4 1 08:45:08
67 5082 ROSSI Anne-karine F Master 1 6 08:46:23
68 5007 DROUX Julien M Master 1 17 08:50:08
69 5005 LOUVIER Philippe M Master 3 4 08:53:06
70 5053 CALLEJA Laurent M Master 2 11 08:57:04
71 5094 RODIERE Pascal M Master 1 18 08:59:38
72 5011 BROSSARD Romain M Senior 20 09:00:23
73 5029 DECAIX Jean-pierre M Master 3 5 09:07:35
74 5024 SEIVERT Francoise F Master 3 1 09:10:00
75 5021 MEDAREG-NAROU Halim M Master 2 12 09:18:03
76 5050 KADDOUR Emeline F Senior 12 09:21:05
77 5049 FAURE Jean-emmanuel M Senior 21 09:21:06
78 5098 SELEFEN James M Senior 22 09:28:41
79 5022 MACH Lise F Senior 13 09:31:02
80 5076 KERDOUH Ludovic M Master 2 13 09:33:35
81 5035 PICCININ Marina F Master 1 7 09:40:40
82 5019 LESCADIEU Marine F Senior 14 09:52:14
83 5086 BONATON David M Master 1 19 10:04:49
84 5037 COURIER Emmanuel M Senior 23 10:13:34
85 5033 DEMAIN Nicolas M Master 1 20 10:13:37
86 5083 TABURET Jean-francois M Senior 24 10:14:25
87 5036 MULLER Fabrice M Master 2 14 10:15:16
88 5067 CHEVAL Franck M Master 2 15 10:16:58
89 5001 BEDAS Andre M Master 4 2 10:57:20
90 5091 ACCAME Alexandra F Master 1 8 11:33:35
91 5097 SUIGNARD Aurelie F Senior 15 11:33:35
92 5090 ACCAME Florian M Master 1 21 11:33:35
- 5014 PHILIP Gaetan M Senior - DNF
- 5080 MARIETTE Lucie F Senior - DNF
- 5099 SIMON Morgane F Senior - DNF
- 5100 POCARD Alexandre M Senior - DNF
- 5104 SCHOETTEL Guillaume M Senior - DNF
- 5009 BOUVRON Rozenn F Master 1 - DNS
- 5010 CHAPUSOT Stephane M Master 2 - DNS
- 5081 HUMEAU Laurence F Master 2 - DNS
- 5095 LIBON Christine F Master 1 - DNS